Time;durP1;ratioP1;P1;durP2;ratioP2;P2;SDS_P1;SDS_P2;PMS_P1;PMS_P2;Temp;Humidity;BMP_temperature;BMP_pressure;BME280_temperature;BME280_humidity;BME280_pressure;Samples;Min_cycle;Max_cycle;Signal;HPM_P1;HPM_P2
2020/12/31 00:02:19;;;;;;;;;;;;;;;-1.36;100.00;98439.59;5076653;28;19928;-76
2020/12/31 00:04:46;;;;;;;;;;;;;;;-1.45;100.00;98444.50;5076336;28;19924;-77
2020/12/31 00:07:13;;;;;;;;;;;;;;;-1.38;100.00;98439.16;5076837;28;19947;-76
2020/12/31 00:09:39;;;;;;;;;;;;;;;-1.40;100.00;98446.94;5094722;28;19928;-77
2020/12/31 00:12:06;;;;;;;;;;;;;;;-1.29;100.00;98442.47;5094674;28;20434;-76
2020/12/31 00:14:33;;;;;;;;;;;;;;;-1.29;100.00;98442.47;5094751;28;20019;-77
2020/12/31 00:16:59;;;;;;;;;;;;;;;-1.40;100.00;98435.97;5094630;28;19973;-76
2020/12/31 00:19:26;;;;;;;;;;;;;;;-1.47;100.00;98442.09;5094206;28;19928;-76
2020/12/31 00:21:52;;;;;;;;;;;;;;;-1.46;100.00;98440.16;5076564;28;19946;-76
2020/12/31 00:24:20;;;;;;;;;;;;;;;-1.46;100.00;98431.94;5094390;28;19928;-76
2020/12/31 00:26:47;;;;;;;;;;;;;;;-1.50;100.00;98434.56;5094499;28;19924;-76
2020/12/31 00:29:13;;;;;;;;;;;;;;;-1.51;100.00;98434.94;5094438;28;20395;-76
2020/12/31 00:31:40;;;;;;;;;;;;;;;-1.55;100.00;98434.09;5094202;28;19928;-76
2020/12/31 00:34:06;;;;;;;;;;;;;;;-1.60;100.00;98423.41;5093370;28;20275;-76
2020/12/31 00:36:33;;;;;;;;;;;;;;;-1.53;100.00;98431.78;5094255;28;19924;-76
2020/12/31 00:39:00;;;;;;;;;;;;;;;-1.50;100.00;98431.84;5094168;28;19951;-79
2020/12/31 00:41:27;;;;;;;;;;;;;;;-1.58;100.00;98437.53;5094184;28;19928;-76
2020/12/31 00:43:53;;;;;;;;;;;;;;;-1.59;100.00;98446.91;5094185;28;19931;-76
2020/12/31 00:46:20;;;;;;;;;;;;;;;-1.61;100.00;98441.00;5093966;28;19928;-76
2020/12/31 00:48:46;;;;;;;;;;;;;;;-1.60;100.00;98454.34;5093783;28;19924;-76
2020/12/31 00:51:13;;;;;;;;;;;;;;;-1.61;100.00;98451.94;5094145;28;20256;-76
2020/12/31 00:53:40;;;;;;;;;;;;;;;-1.52;100.00;98456.09;5076195;28;20519;-76
2020/12/31 00:56:07;;;;;;;;;;;;;;;-1.52;100.00;98467.03;5076140;28;20363;-76
2020/12/31 00:58:37;;;;;;;;;;;;;;;-1.41;100.00;98464.53;5094021;28;19924;-76
2020/12/31 01:01:04;;;;;;;;;;;;;;;-1.33;100.00;98474.50;5075579;28;19931;-76
2020/12/31 01:03:31;;;;;;;;;;;;;;;-1.28;100.00;98479.69;5093942;28;20287;-76
2020/12/31 01:05:57;;;;;;;;;;;;;;;-1.11;100.00;98485.53;5093538;28;19960;-78
2020/12/31 01:08:25;;;;;;;;;;;;;;;-0.65;100.00;98505.66;5093777;28;20367;-78
2020/12/31 01:10:52;;;;;;;;;;;;;;;-0.70;100.00;98509.47;5093833;28;20259;-78
2020/12/31 01:13:19;;;;;;;;;;;;;;;-0.81;100.00;98499.44;5093876;28;20263;-76
2020/12/31 01:15:46;;;;;;;;;;;;;;;-0.94;100.00;98493.31;5093501;28;20359;-76
2020/12/31 01:18:13;;;;;;;;;;;;;;;-1.04;100.00;98491.16;5093650;28;19924;-77
2020/12/31 01:20:40;;;;;;;;;;;;;;;-0.90;100.00;98476.94;5093801;28;19934;-76
2020/12/31 01:23:06;;;;;;;;;;;;;;;-1.11;100.00;98479.25;5093853;28;19924;-76
2020/12/31 01:25:36;;;;;;;;;;;;;;;-0.96;100.00;98489.34;5093739;28;19925;-76
2020/12/31 01:28:03;;;;;;;;;;;;;;;-1.06;100.00;98485.22;5093611;28;19931;-76
2020/12/31 01:30:30;;;;;;;;;;;;;;;-0.90;100.00;98487.91;5093407;28;20396;-76
2020/12/31 01:32:57;;;;;;;;;;;;;;;-0.57;100.00;98496.38;5075821;28;19941;-76
2020/12/31 01:35:24;;;;;;;;;;;;;;;-0.92;100.00;98480.03;5075539;28;19931;-76
2020/12/31 01:37:50;;;;;;;;;;;;;;;-0.70;100.00;98487.53;5075508;28;20041;-78
2020/12/31 01:40:17;;;;;;;;;;;;;;;-0.38;100.00;98502.63;5093621;28;19932;-76
2020/12/31 01:42:44;;;;;;;;;;;;;;;-0.14;100.00;98512.47;5075559;28;19924;-76
2020/12/31 01:45:11;;;;;;;;;;;;;;;-0.05;100.00;98507.50;5093282;28;19925;-76
2020/12/31 01:47:37;;;;;;;;;;;;;;;-0.03;100.00;98505.16;5093459;28;20394;-76
2020/12/31 01:50:04;;;;;;;;;;;;;;;-0.13;100.00;98500.31;5093512;28;19924;-76
2020/12/31 01:52:32;;;;;;;;;;;;;;;-0.06;100.00;98503.97;5093568;28;19966;-76
2020/12/31 01:55:00;;;;;;;;;;;;;;;0.18;100.00;98500.06;5093478;28;20405;-78
2020/12/31 01:57:29;;;;;;;;;;;;;;;0.41;100.00;98509.03;5058959;28;19928;-77
2020/12/31 01:59:56;;;;;;;;;;;;;;;0.60;100.00;98514.41;5093143;28;19932;-78
2020/12/31 02:02:23;;;;;;;;;;;;;;;0.63;100.00;98521.13;5093257;28;19924;-78
2020/12/31 02:04:50;;;;;;;;;;;;;;;0.63;100.00;98518.38;5093199;28;19951;-78
2020/12/31 02:07:17;;;;;;;;;;;;;;;0.53;100.00;98511.56;5093318;28;19924;-78
2020/12/31 02:09:44;;;;;;;;;;;;;;;0.56;100.00;98510.81;5093262;28;19924;-77
2020/12/31 02:12:11;;;;;;;;;;;;;;;0.53;100.00;98506.06;5093336;28;19928;-76
2020/12/31 02:14:46;;;;;;;;;;;;;;;0.56;100.00;98505.31;5078344;28;20370;-78
2020/12/31 02:17:12;;;;;;;;;;;;;;;0.46;100.00;98505.16;5097259;28;19931;-78
2020/12/31 02:19:39;;;;;;;;;;;;;;;0.39;100.00;98499.56;5079079;28;20028;-75
2020/12/31 02:22:06;;;;;;;;;;;;;;;0.42;100.00;98507.88;5097007;28;20011;-80
2020/12/31 02:24:33;;;;;;;;;;;;;;;0.39;100.00;98502.31;5078698;28;19969;-76
2020/12/31 02:26:59;;;;;;;;;;;;;;;0.37;100.00;98508.19;5096895;28;20355;-77
2020/12/31 02:29:26;;;;;;;;;;;;;;;0.38;100.00;98506.25;5096378;28;20541;-77
2020/12/31 02:31:52;;;;;;;;;;;;;;;0.33;100.00;98506.53;5078727;28;19964;-77
2020/12/31 02:34:19;;;;;;;;;;;;;;;0.39;100.00;98511.38;5096761;28;20013;-77
2020/12/31 02:36:45;;;;;;;;;;;;;;;0.48;100.00;98509.16;5096699;28;19931;-77
2020/12/31 02:39:13;;;;;;;;;;;;;;;0.48;100.00;98525.63;5096596;28;19924;-77
2020/12/31 02:41:40;;;;;;;;;;;;;;;0.49;100.00;98507.97;5096547;28;19924;-77
2020/12/31 02:44:07;;;;;;;;;;;;;;;0.54;100.00;98523.34;5078090;28;19977;-76
2020/12/31 02:46:34;;;;;;;;;;;;;;;0.52;100.00;98520.16;5078442;28;19924;-77
2020/12/31 02:49:00;;;;;;;;;;;;;;;0.52;100.00;98520.97;5078456;28;20033;-77
2020/12/31 02:51:27;;;;;;;;;;;;;;;0.50;100.00;98523.28;5096323;28;19924;-77
2020/12/31 02:53:54;;;;;;;;;;;;;;;0.59;100.00;98523.81;5096432;28;19924;-77
2020/12/31 02:56:23;;;;;;;;;;;;;;;0.65;100.00;98525.06;5078405;28;19928;-77
2020/12/31 02:58:50;;;;;;;;;;;;;;;0.63;100.00;98527.44;5096088;28;19928;-77
2020/12/31 03:01:16;;;;;;;;;;;;;;;0.66;100.00;98532.19;5096317;28;19924;-77
2020/12/31 03:03:43;;;;;;;;;;;;;;;0.85;100.00;98534.78;5096258;28;19924;-77
2020/12/31 03:06:10;;;;;;;;;;;;;;;0.95;100.00;98536.91;5096031;28;19935;-77
2020/12/31 03:08:37;;;;;;;;;;;;;;;1.03;100.00;98549.59;5078088;28;20424;-77
2020/12/31 03:11:05;;;;;;;;;;;;;;;1.11;100.00;98553.22;5096096;28;20023;-77
2020/12/31 03:13:32;;;;;;;;;;;;;;;1.15;100.00;98554.06;5077556;28;19924;-76
2020/12/31 03:15:58;;;;;;;;;;;;;;;1.09;100.00;98556.34;5096009;28;20320;-77
2020/12/31 03:18:25;;;;;;;;;;;;;;;0.96;100.00;98563.25;5095987;28;20015;-77
2020/12/31 03:20:52;;;;;;;;;;;;;;;0.66;100.00;98548.69;5095917;28;19924;-77
2020/12/31 03:23:18;;;;;;;;;;;;;;;0.49;100.00;98554.69;5095879;28;19924;-76
2020/12/31 03:25:45;;;;;;;;;;;;;;;0.37;100.00;98541.16;5095636;28;19928;-77
2020/12/31 03:28:14;;;;;;;;;;;;;;;0.18;100.00;98549.50;5095495;28;19970;-77
2020/12/31 03:30:42;;;;;;;;;;;;;;;0.22;100.00;98560.53;5095658;28;19931;-77
2020/12/31 03:33:12;;;;;;;;;;;;;;;0.15;100.00;98560.41;5095606;28;20012;-77
2020/12/31 03:35:39;;;;;;;;;;;;;;;0.15;100.00;98580.47;5095581;28;19924;-77
2020/12/31 03:38:06;;;;;;;;;;;;;;;0.13;100.00;98596.50;5095501;28;20292;-77
2020/12/31 03:40:33;;;;;;;;;;;;;;;0.13;100.00;98601.19;5077115;28;19924;-78
2020/12/31 03:42:59;;;;;;;;;;;;;;;0.08;100.00;98604.25;5095422;28;20287;-77
2020/12/31 03:45:26;;;;;;;;;;;;;;;0.07;100.00;98611.69;5095144;28;19963;-77
2020/12/31 03:47:52;;;;;;;;;;;;;;;0.08;100.00;98621.53;5095147;28;19939;-78
2020/12/31 03:50:21;;;;;;;;;;;;;;;0.10;100.00;98635.69;5094984;28;20189;-77
2020/12/31 03:52:48;;;;;;;;;;;;;;;0.10;100.00;98641.19;5077180;28;19923;-77
2020/12/31 03:55:15;;;;;;;;;;;;;;;0.11;100.00;98653.75;5076856;28;19928;-77
2020/12/31 03:57:42;;;;;;;;;;;;;;;0.16;100.00;98658.97;5094758;28;19929;-77
2020/12/31 04:00:11;;;;;;;;;;;;;;;0.22;100.00;98668.50;5094839;28;20306;-77
2020/12/31 04:02:37;;;;;;;;;;;;;;;0.28;100.00;98675.28;5094486;28;19924;-77
2020/12/31 04:05:04;;;;;;;;;;;;;;;0.38;100.00;98685.66;5093969;28;19932;-77
2020/12/31 04:07:31;;;;;;;;;;;;;;;0.31;100.00;98696.53;5094238;28;19931;-76
2020/12/31 04:09:57;;;;;;;;;;;;;;;0.29;100.00;98698.84;5076049;28;19931;-77
2020/12/31 04:12:24;;;;;;;;;;;;;;;0.33;100.00;98699.72;5094218;28;19924;-77
2020/12/31 04:14:50;;;;;;;;;;;;;;;0.26;100.00;98699.56;5094201;28;20005;-77
2020/12/31 04:17:17;;;;;;;;;;;;;;;0.26;100.00;98693.28;5095138;28;20295;-77
2020/12/31 04:19:44;;;;;;;;;;;;;;;0.26;100.00;98691.31;5076986;28;19930;-77
2020/12/31 04:22:10;;;;;;;;;;;;;;;0.30;100.00;98697.69;5110769;28;19935;-77
2020/12/31 04:24:37;;;;;;;;;;;;;;;0.35;100.00;98697.38;5094566;28;20007;-77
2020/12/31 04:27:04;;;;;;;;;;;;;;;0.41;100.00;98706.91;5094741;28;20008;-77
2020/12/31 04:29:30;;;;;;;;;;;;;;;0.39;100.00;98702.94;5094757;28;19959;-77
2020/12/31 04:31:57;;;;;;;;;;;;;;;0.34;100.00;98701.28;5094739;28;19932;-77
2020/12/31 04:34:23;;;;;;;;;;;;;;;0.53;100.00;98714.97;5094389;28;20021;-77
2020/12/31 04:36:50;;;;;;;;;;;;;;;0.61;100.00;98724.16;5094028;28;20015;-77
2020/12/31 04:39:17;;;;;;;;;;;;;;;0.54;100.00;98732.28;5093965;28;19961;-78
2020/12/31 04:41:43;;;;;;;;;;;;;;;0.60;100.00;98725.31;5110059;28;20042;-77
2020/12/31 04:44:12;;;;;;;;;;;;;;;0.71;100.00;98740.81;5059764;28;19924;-77
2020/12/31 04:46:40;;;;;;;;;;;;;;;0.75;100.00;98736.19;5076311;28;19927;-77
2020/12/31 04:49:11;;;;;;;;;;;;;;;0.70;100.00;98725.50;5076154;28;19978;-77
2020/12/31 04:51:38;;;;;;;;;;;;;;;0.66;100.00;98727.41;5094288;28;19928;-77
2020/12/31 04:54:06;;;;;;;;;;;;;;;0.63;100.00;98719.88;5093890;28;19949;-77
2020/12/31 04:56:34;;;;;;;;;;;;;;;0.51;100.00;98716.50;5094097;28;19924;-77
2020/12/31 04:59:00;;;;;;;;;;;;;;;0.47;100.00;98715.66;5076118;28;20363;-77
2020/12/31 05:01:27;;;;;;;;;;;;;;;0.42;100.00;98714.00;5076019;28;19997;-77
2020/12/31 05:03:53;;;;;;;;;;;;;;;0.41;100.00;98706.91;5094080;28;19924;-77
2020/12/31 05:06:21;;;;;;;;;;;;;;;0.36;100.00;98704.47;5093636;28;19928;-77
2020/12/31 05:08:48;;;;;;;;;;;;;;;0.42;100.00;98708.53;5093662;28;19924;-77
2020/12/31 05:11:14;;;;;;;;;;;;;;;0.45;100.00;98706.97;5093890;28;19925;-77
2020/12/31 05:13:42;;;;;;;;;;;;;;;0.44;100.00;98702.66;5093846;28;20374;-77
2020/12/31 05:16:08;;;;;;;;;;;;;;;0.36;100.00;98706.41;5093809;28;20295;-78
2020/12/31 05:18:35;;;;;;;;;;;;;;;0.60;100.00;98725.31;5075639;28;19924;-77
2020/12/31 05:21:13;;;;;;;;;;;;;;;0.75;100.00;98729.91;5075829;28;19924;-77
2020/12/31 05:23:39;;;;;;;;;;;;;;;0.80;100.00;98713.91;5093486;28;19969;-77
2020/12/31 05:26:06;;;;;;;;;;;;;;;0.69;100.00;98712.91;5093844;28;19924;-77
2020/12/31 05:28:34;;;;;;;;;;;;;;;0.62;100.00;98696.28;5093518;28;20363;-77
2020/12/31 05:31:07;;;;;;;;;;;;;;;0.50;100.00;98692.94;5093782;28;19938;-77
2020/12/31 05:33:35;;;;;;;;;;;;;;;0.38;100.00;98674.66;5093626;28;19924;-77
2020/12/31 05:36:11;;;;;;;;;;;;;;;0.37;100.00;98656.59;5093734;28;19924;-77
2020/12/31 05:38:37;;;;;;;;;;;;;;;0.32;100.00;98659.63;5093477;28;19924;-77
2020/12/31 05:41:04;;;;;;;;;;;;;;;0.40;100.00;98660.53;5093600;28;20588;-77
2020/12/31 05:43:31;;;;;;;;;;;;;;;0.47;100.00;98661.47;5093618;28;19928;-77
2020/12/31 05:46:04;;;;;;;;;;;;;;;0.58;100.00;98667.94;5075474;28;19977;-77
2020/12/31 05:48:31;;;;;;;;;;;;;;;0.77;100.00;98665.13;5095206;28;19928;-77
2020/12/31 05:50:57;;;;;;;;;;;;;;;0.86;100.00;98651.91;5097173;28;19924;-77
2020/12/31 05:53:24;;;;;;;;;;;;;;;1.02;100.00;98655.28;5079389;28;19924;-77
2020/12/31 05:55:53;;;;;;;;;;;;;;;1.29;100.00;98648.63;5097379;28;20074;-77
2020/12/31 05:58:21;;;;;;;;;;;;;;;1.22;100.00;98631.22;5062322;28;20011;-77
2020/12/31 06:01:01;;;;;;;;;;;;;;;1.19;100.00;98616.25;5097287;28;19964;-77
2020/12/31 06:03:35;;;;;;;;;;;;;;;1.29;100.00;98598.28;5097264;28;19933;-77
2020/12/31 06:06:08;;;;;;;;;;;;;;;1.27;100.00;98584.88;5096843;28;19938;-77
2020/12/31 06:08:36;;;;;;;;;;;;;;;1.44;100.00;98576.06;5097008;28;19928;-77
2020/12/31 06:11:03;;;;;;;;;;;;;;;1.43;100.00;98560.72;5097043;28;19930;-77
2020/12/31 06:13:36;;;;;;;;;;;;;;;1.44;100.00;98554.03;5097085;28;19928;-77
2020/12/31 06:16:04;;;;;;;;;;;;;;;1.46;100.00;98545.41;5096989;28;19924;-77
2020/12/31 06:18:33;;;;;;;;;;;;;;;1.38;100.00;98519.75;5078636;28;20302;-77
2020/12/31 06:21:05;;;;;;;;;;;;;;;1.37;100.00;98520.13;5096591;28;19931;-77
2020/12/31 06:23:36;;;;;;;;;;;;;;;1.40;100.00;98506.41;5096828;28;19931;-77
2020/12/31 06:26:13;;;;;;;;;;;;;;;1.36;100.00;98499.28;5096822;28;20383;-77
2020/12/31 06:28:49;;;;;;;;;;;;;;;1.32;100.00;98490.97;5096631;28;19924;-77
2020/12/31 06:31:15;;;;;;;;;;;;;;;1.30;100.00;98490.56;5096636;28;20014;-77
2020/12/31 06:33:44;;;;;;;;;;;;;;;1.33;100.00;98489.81;5078440;28;19924;-77
2020/12/31 06:36:12;;;;;;;;;;;;;;;1.19;100.00;98473.16;5096252;28;19951;-77
2020/12/31 06:38:42;;;;;;;;;;;;;;;1.33;100.00;98475.25;5078578;28;20373;-77
2020/12/31 06:41:27;;;;;;;;;;;;;;;1.33;100.00;98478.78;5096548;28;20017;-77
2020/12/31 06:44:07;;;;;;;;;;;;;;;1.45;100.00;98475.78;5078454;28;19924;-77
2020/12/31 06:46:40;;;;;;;;;;;;;;;1.49;100.00;98487.63;5096482;28;19924;-77
2020/12/31 06:49:07;;;;;;;;;;;;;;;1.52;100.00;98475.06;5077922;28;19923;-77
2020/12/31 06:51:33;;;;;;;;;;;;;;;1.48;100.00;98472.28;5096349;28;19950;-77
2020/12/31 06:54:00;;;;;;;;;;;;;;;1.40;100.00;98473.38;5096267;28;19928;-77
2020/12/31 06:56:40;;;;;;;;;;;;;;;1.34;100.00;98457.56;5096194;28;20090;-76
2020/12/31 06:59:25;;;;;;;;;;;;;;;1.29;100.00;98455.16;5095890;28;19978;-77
2020/12/31 07:01:52;;;;;;;;;;;;;;;1.24;100.00;98461.78;5078019;28;20391;-77
2020/12/31 07:04:32;;;;;;;;;;;;;;;1.05;100.00;98456.47;5095654;28;20018;-79
2020/12/31 07:06:59;;;;;;;;;;;;;;;0.90;100.00;98468.47;5093410;28;20295;-78
2020/12/31 07:09:38;;;;;;;;;;;;;;;0.75;100.00;98458.47;5094558;28;19924;-77
2020/12/31 07:12:06;;;;;;;;;;;;;;;0.48;100.00;98470.66;5095892;28;19924;-77
2020/12/31 07:14:33;;;;;;;;;;;;;;;0.46;100.00;98478.47;5095839;28;19924;-77
2020/12/31 07:17:01;;;;;;;;;;;;;;;0.37;100.00;98475.19;5095847;28;19959;-77
2020/12/31 07:19:31;;;;;;;;;;;;;;;0.15;100.00;98476.06;5095505;28;19946;-77
2020/12/31 07:22:01;;;;;;;;;;;;;;;0.07;100.00;98485.34;5095817;28;20104;-78
2020/12/31 07:24:28;;;;;;;;;;;;;;;-0.12;100.00;98474.41;5095494;28;20010;-77
2020/12/31 07:26:56;;;;;;;;;;;;;;;-0.17;100.00;98488.47;5095558;28;19924;-77
2020/12/31 07:29:23;;;;;;;;;;;;;;;-0.19;100.00;98490.78;5095546;28;19931;-77
2020/12/31 07:34:24;;;;;;;;;;;;;;;-0.11;100.00;98506.22;5076229;28;19924;-77
2020/12/31 07:36:57;;;;;;;;;;;;;;;-0.07;100.00;98527.09;5111096;28;20307;-77
2020/12/31 07:39:24;;;;;;;;;;;;;;;0.04;100.00;98541.00;5095397;28;19931;-77
2020/12/31 07:41:51;;;;;;;;;;;;;;;0.10;100.00;98556.03;5095283;28;19943;-78
2020/12/31 07:44:17;;;;;;;;;;;;;;;0.09;100.00;98557.19;5095191;28;19957;-77
2020/12/31 07:46:44;;;;;;;;;;;;;;;0.12;100.00;98570.19;5077011;28;20688;-77
2020/12/31 07:49:11;;;;;;;;;;;;;;;0.20;100.00;98579.34;5095409;28;20028;-77
2020/12/31 07:51:45;;;;;;;;;;;;;;;0.24;100.00;98602.19;5095294;28;19931;-77
2020/12/31 07:54:11;;;;;;;;;;;;;;;0.22;100.00;98615.47;5086620;28;19929;-77
2020/12/31 07:56:38;;;;;;;;;;;;;;;0.19;100.00;98622.50;5074751;28;19939;-77
2020/12/31 07:59:05;;;;;;;;;;;;;;;0.22;100.00;98638.25;5074569;28;19924;-77
2020/12/31 08:01:32;;;;;;;;;;;;;;;0.23;100.00;98652.81;5074403;28;20011;-77
2020/12/31 08:04:10;;;;;;;;;;;;;;;0.29;100.00;98668.59;5074689;28;19940;-77
2020/12/31 08:06:37;;;;;;;;;;;;;;;0.21;100.00;98680.66;5074322;28;20006;-77
2020/12/31 08:09:03;;;;;;;;;;;;;;;0.24;100.00;98701.09;5056668;28;20344;-77
2020/12/31 08:11:30;;;;;;;;;;;;;;;0.30;100.00;98718.88;5073582;28;20287;-78
2020/12/31 08:14:01;;;;;;;;;;;;;;;0.35;100.00;98724.84;5074515;28;19925;-78
2020/12/31 08:16:27;;;;;;;;;;;;;;;0.35;100.00;98735.84;5056357;28;19924;-79
2020/12/31 08:18:54;;;;;;;;;;;;;;;0.36;100.00;98742.16;5074399;28;20294;-77
2020/12/31 08:21:21;;;;;;;;;;;;;;;0.40;100.00;98752.06;5056462;28;20287;-77
2020/12/31 08:23:52;;;;;;;;;;;;;;;0.44;100.00;98761.16;5056324;28;19932;-78
2020/12/31 08:26:19;;;;;;;;;;;;;;;0.43;100.00;98759.56;5074097;28;20011;-78
2020/12/31 08:28:47;;;;;;;;;;;;;;;0.41;100.00;98772.09;5074038;28;20374;-78
2020/12/31 08:31:15;;;;;;;;;;;;;;;0.38;100.00;98775.56;5073392;28;20368;-77
2020/12/31 08:33:45;;;;;;;;;;;;;;;0.38;100.00;98779.09;5056535;28;20401;-80
2020/12/31 08:36:22;;;;;;;;;;;;;;;0.40;100.00;98782.28;5056194;28;19928;-77
2020/12/31 08:38:49;;;;;;;;;;;;;;;0.31;100.00;98778.97;5074060;28;20019;-78
2020/12/31 08:41:18;;;;;;;;;;;;;;;0.37;100.00;98782.22;5074257;28;20376;-78
2020/12/31 08:43:45;;;;;;;;;;;;;;;0.36;100.00;98791.63;5073990;28;20023;-78
2020/12/31 08:46:20;;;;;;;;;;;;;;;0.37;100.00;98793.19;5055651;28;19931;-78
2020/12/31 08:48:56;;;;;;;;;;;;;;;0.29;100.00;98789.53;5056159;28;19960;-77
2020/12/31 08:51:28;;;;;;;;;;;;;;;0.32;100.00;98793.50;5073899;28;19931;-78
2020/12/31 08:53:56;;;;;;;;;;;;;;;0.33;100.00;98793.16;5073941;28;19928;-77
2020/12/31 08:56:26;;;;;;;;;;;;;;;0.45;100.00;98800.44;5073707;28;19925;-77
2020/12/31 08:59:09;;;;;;;;;;;;;;;0.51;100.00;98810.78;5055957;28;19956;-78
2020/12/31 09:01:36;;;;;;;;;;;;;;;0.55;100.00;98816.34;5055894;28;19924;-78
2020/12/31 09:04:06;;;;;;;;;;;;;;;0.50;100.00;98808.41;5039318;28;19946;-78
2020/12/31 09:06:33;;;;;;;;;;;;;;;0.50;100.00;98817.41;5073690;28;19924;-78
2020/12/31 09:09:00;;;;;;;;;;;;;;;0.55;100.00;98824.56;5073787;28;19978;-78
2020/12/31 09:11:27;;;;;;;;;;;;;;;0.64;100.00;98823.19;5073641;28;20019;-76
2020/12/31 09:14:04;;;;;;;;;;;;;;;0.68;100.00;98821.31;5073309;28;19924;-77
2020/12/31 09:16:31;;;;;;;;;;;;;;;0.69;100.00;98819.34;5089176;28;19978;-77
2020/12/31 09:19:00;;;;;;;;;;;;;;;0.65;100.00;98822.03;5072573;28;19951;-79
2020/12/31 09:21:28;;;;;;;;;;;;;;;0.64;100.00;98809.44;5089463;28;20295;-77
2020/12/31 09:23:55;;;;;;;;;;;;;;;0.58;100.00;98810.91;5077662;28;19932;-77
2020/12/31 09:26:26;;;;;;;;;;;;;;;0.57;100.00;98808.53;5059676;28;19931;-77
2020/12/31 09:28:53;;;;;;;;;;;;;;;0.58;100.00;98810.91;5077258;28;19925;-77
2020/12/31 09:31:22;;;;;;;;;;;;;;;0.71;100.00;98817.81;5077498;28;20388;-77
2020/12/31 09:33:50;;;;;;;;;;;;;;;0.70;100.00;98820.94;5072675;28;19935;-78
2020/12/31 09:36:20;;;;;;;;;;;;;;;0.71;100.00;98823.31;5092106;28;20767;-78
2020/12/31 09:38:47;;;;;;;;;;;;;;;0.73;100.00;98829.25;5091670;28;19931;-79
2020/12/31 09:41:14;;;;;;;;;;;;;;;0.83;100.00;98822.38;5093367;28;19924;-78
2020/12/31 09:43:40;;;;;;;;;;;;;;;0.79;100.00;98832.53;5092496;28;20026;-77
2020/12/31 09:46:07;;;;;;;;;;;;;;;0.71;100.00;98837.06;5093036;28;20015;-76
2020/12/31 09:48:34;;;;;;;;;;;;;;;0.90;100.00;98845.31;5093769;28;19924;-77
2020/12/31 09:51:01;;;;;;;;;;;;;;;0.89;100.00;98834.66;5091860;28;20030;-75
2020/12/31 09:53:28;;;;;;;;;;;;;;;0.97;100.00;98845.44;5092151;28;19938;-75
2020/12/31 09:55:54;;;;;;;;;;;;;;;1.01;100.00;98854.56;5092933;28;20011;-76
2020/12/31 09:58:21;;;;;;;;;;;;;;;1.05;100.00;98836.16;5087713;28;19932;-75
2020/12/31 10:00:48;;;;;;;;;;;;;;;1.00;100.00;98844.69;5089918;28;19924;-74
2020/12/31 10:03:15;;;;;;;;;;;;;;;0.99;100.00;98840.38;5090301;28;19932;-74
2020/12/31 10:05:41;;;;;;;;;;;;;;;1.02;100.00;98836.88;5092070;28;20303;-74
2020/12/31 10:08:10;;;;;;;;;;;;;;;1.05;100.00;98843.59;5088610;28;20284;-79
2020/12/31 10:10:37;;;;;;;;;;;;;;;1.01;100.00;98835.31;5090977;28;20022;-75
2020/12/31 10:13:06;;;;;;;;;;;;;;;0.97;100.00;98839.94;5091614;28;19977;-77
2020/12/31 10:15:33;;;;;;;;;;;;;;;0.82;100.00;98827.06;5090210;28;19924;-78
2020/12/31 10:18:00;;;;;;;;;;;;;;;0.85;100.00;98834.59;5096847;28;19978;-77
2020/12/31 10:20:26;;;;;;;;;;;;;;;0.81;100.00;98830.19;5078732;28;20332;-77
2020/12/31 10:22:53;;;;;;;;;;;;;;;0.93;100.00;98841.84;5096386;28;19927;-77
2020/12/31 10:25:20;;;;;;;;;;;;;;;0.92;100.00;98836.69;5094286;28;19935;-77
2020/12/31 10:27:46;;;;;;;;;;;;;;;1.06;100.00;98851.50;5096106;28;19931;-77
2020/12/31 10:30:13;;;;;;;;;;;;;;;1.03;100.00;98837.69;5096403;28;20297;-77
2020/12/31 10:32:39;;;;;;;;;;;;;;;1.14;100.00;98844.16;5096509;28;19924;-77
2020/12/31 10:35:06;;;;;;;;;;;;;;;1.24;100.00;98857.31;5095829;28;19924;-77
2020/12/31 10:37:32;;;;;;;;;;;;;;;1.31;100.00;98854.69;5096601;28;19924;-77
2020/12/31 10:39:59;;;;;;;;;;;;;;;1.34;100.00;98854.75;5096684;28;20363;-78
2020/12/31 10:42:26;;;;;;;;;;;;;;;1.30;100.00;98848.38;5096271;28;19931;-77
2020/12/31 10:44:53;;;;;;;;;;;;;;;1.29;100.00;98846.78;5095145;28;20026;-77
2020/12/31 10:47:19;;;;;;;;;;;;;;;1.28;100.00;98845.22;5086203;28;20353;-77
2020/12/31 10:49:46;;;;;;;;;;;;;;;1.45;100.00;98841.94;5095863;28;20010;-77
2020/12/31 10:52:13;;;;;;;;;;;;;;;1.47;100.00;98845.13;5096255;28;19924;-77
2020/12/31 10:54:39;;;;;;;;;;;;;;;1.52;100.00;98844.81;5096104;28;19993;-77
2020/12/31 10:57:06;;;;;;;;;;;;;;;1.53;100.00;98845.63;5093623;28;20321;-77
2020/12/31 10:59:33;;;;;;;;;;;;;;;1.42;100.00;98848.19;5095800;28;19924;-77
2020/12/31 11:01:59;;;;;;;;;;;;;;;1.35;100.00;98844.50;5095796;28;19924;-77
2020/12/31 11:04:25;;;;;;;;;;;;;;;1.24;100.00;98849.84;5093198;28;20019;-77
2020/12/31 11:06:52;;;;;;;;;;;;;;;1.17;100.00;98859.94;5095347;28;20295;-77
2020/12/31 11:09:18;;;;;;;;;;;;;;;1.15;100.00;98859.53;5093374;28;19931;-78
2020/12/31 11:11:45;;;;;;;;;;;;;;;1.07;100.00;98853.09;5077227;28;20402;-77
2020/12/31 11:14:12;;;;;;;;;;;;;;;1.20;100.00;98857.25;5095868;28;19924;-76
2020/12/31 11:16:39;;;;;;;;;;;;;;;1.33;100.00;98866.91;5095759;28;20023;-75
2020/12/31 11:19:05;;;;;;;;;;;;;;;1.47;100.00;98875.41;5095552;28;19924;-76
2020/12/31 11:21:32;;;;;;;;;;;;;;;1.61;100.00;98875.66;5093119;28;19931;-77
2020/12/31 11:23:58;;;;;;;;;;;;;;;1.79;100.00;98887.75;5077218;28;20524;-75
2020/12/31 11:26:26;;;;;;;;;;;;;;;1.94;100.00;98893.47;5095303;28;19952;-75
2020/12/31 11:28:52;;;;;;;;;;;;;;;1.98;100.00;98902.59;5095281;28;19928;-75
2020/12/31 11:31:23;;;;;;;;;;;;;;;2.08;100.00;98904.69;5092358;28;19931;-75
2020/12/31 11:33:49;;;;;;;;;;;;;;;2.06;100.00;98909.81;5094616;28;19924;-75
2020/12/31 11:36:16;;;;;;;;;;;;;;;2.07;100.00;98903.91;5128033;27;19924;-75
2020/12/31 11:38:42;;;;;;;;;;;;;;;1.85;100.00;98885.47;5101841;28;19938;-75
2020/12/31 11:41:09;;;;;;;;;;;;;;;2.01;100.00;98891.63;5083166;28;20299;-77
2020/12/31 11:43:46;;;;;;;;;;;;;;;1.95;100.00;98886.78;5098333;28;20352;-76
2020/12/31 11:46:14;;;;;;;;;;;;;;;1.86;100.00;98874.06;5094768;28;19970;-75
2020/12/31 11:48:40;;;;;;;;;;;;;;;1.68;100.00;98859.22;5095090;28;19978;-76
2020/12/31 11:51:21;;;;;;;;;;;;;;;1.57;100.00;98861.03;5106186;27;19947;-75
2020/12/31 11:53:47;;;;;;;;;;;;;;;1.64;100.00;98854.81;5100259;28;19931;-75
2020/12/31 11:56:14;;;;;;;;;;;;;;;1.72;100.00;98859.28;5112284;28;20007;-75
2020/12/31 11:58:40;;;;;;;;;;;;;;;1.91;100.00;98863.91;5100401;28;20276;-75
2020/12/31 12:01:07;;;;;;;;;;;;;;;2.12;100.00;98869.72;5104639;28;19924;-75
2020/12/31 12:03:33;;;;;;;;;;;;;;;1.99;100.00;98868.34;5059743;28;19924;-75
2020/12/31 12:06:00;;;;;;;;;;;;;;;1.80;100.00;98870.03;5095336;28;19924;-74
2020/12/31 12:08:49;;;;;;;;;;;;;;;1.67;100.00;98857.66;5098167;28;19924;-75
2020/12/31 12:11:30;;;;;;;;;;;;;;;1.61;100.00;98855.56;5063049;28;19939;-76
2020/12/31 12:13:57;;;;;;;;;;;;;;;1.71;100.00;98852.97;5086802;28;20019;-74
2020/12/31 12:16:23;;;;;;;;;;;;;;;1.84;100.00;98862.66;5098146;28;20007;-75
2020/12/31 12:18:50;;;;;;;;;;;;;;;1.96;100.00;98852.56;5094622;28;19928;-74
2020/12/31 12:21:17;;;;;;;;;;;;;;;2.07;100.00;98859.81;5094203;28;20388;-75
2020/12/31 12:23:44;;;;;;;;;;;;;;;2.13;100.00;98860.28;5091864;28;19928;-75
2020/12/31 12:26:11;;;;;;;;;;;;;;;2.13;100.00;98863.84;5102977;28;19928;-76
2020/12/31 12:28:38;;;;;;;;;;;;;;;2.12;100.00;98861.47;5102972;28;19937;-76
2020/12/31 12:31:13;;;;;;;;;;;;;;;2.26;100.00;98861.66;5109943;28;19954;-76
2020/12/31 12:33:40;;;;;;;;;;;;;;;2.30;100.00;98854.22;5081775;28;19963;-76
2020/12/31 12:36:06;;;;;;;;;;;;;;;2.46;100.00;98857.56;5106009;28;19959;-76
2020/12/31 12:38:32;;;;;;;;;;;;;;;2.49;100.00;98860.38;5094331;28;19928;-76
2020/12/31 12:40:59;;;;;;;;;;;;;;;2.56;100.00;98867.97;5095362;28;19969;-76
2020/12/31 12:43:25;;;;;;;;;;;;;;;2.54;100.00;98864.78;5111208;28;19924;-76
2020/12/31 12:45:52;;;;;;;;;;;;;;;2.44;100.00;98849.69;5100602;28;19924;-76
2020/12/31 12:48:18;;;;;;;;;;;;;;;2.27;100.00;98847.50;5104429;28;19924;-76
2020/12/31 12:50:45;;;;;;;;;;;;;;;2.22;100.00;98838.75;5075917;28;20325;-75
2020/12/31 12:53:11;;;;;;;;;;;;;;;2.19;100.00;98836.75;5093604;28;20339;-76